sensor_id;sensor_type;location;lat;lon;timestamp;P1;P2;P0
69123;PMS5003;56232;53.384;-2.732;2023-05-28T00:00:42;4;4;
69123;PMS5003;56232;53.384;-2.732;2023-05-28T00:03:08;4;4;
69123;PMS5003;56232;53.384;-2.732;2023-05-28T00:05:34;4;4;
69123;PMS5003;56232;53.384;-2.732;2023-05-28T00:07:59;3;2;
69123;PMS5003;56232;53.384;-2.732;2023-05-28T00:10:25;4;4;
69123;PMS5003;56232;53.384;-2.732;2023-05-28T00:12:51;3;3;
69123;PMS5003;56232;53.384;-2.732;2023-05-28T00:15:16;3;3;
69123;PMS5003;56232;53.384;-2.732;2023-05-28T00:17:42;2;2;
69123;PMS5003;56232;53.384;-2.732;2023-05-28T00:20:08;4;3;
69123;PMS5003;56232;53.384;-2.732;2023-05-28T00:22:33;4;4;
69123;PMS5003;56232;53.384;-2.732;2023-05-28T00:24:59;4;3;
69123;PMS5003;56232;53.384;-2.732;2023-05-28T00:27:25;4;3;
69123;PMS5003;56232;53.384;-2.732;2023-05-28T00:29:50;4;4;
69123;PMS5003;56232;53.384;-2.732;2023-05-28T00:32:16;5;4;
69123;PMS5003;56232;53.384;-2.732;2023-05-28T00:34:42;4;4;
69123;PMS5003;56232;53.384;-2.732;2023-05-28T00:37:07;4;4;
69123;PMS5003;56232;53.384;-2.732;2023-05-28T00:39:33;5;4;
69123;PMS5003;56232;53.384;-2.732;2023-05-28T00:41:59;4;4;
69123;PMS5003;56232;53.384;-2.732;2023-05-28T00:44:25;6;6;
69123;PMS5003;56232;53.384;-2.732;2023-05-28T00:46:50;5;4;
69123;PMS5003;56232;53.384;-2.732;2023-05-28T00:49:16;4;4;
69123;PMS5003;56232;53.384;-2.732;2023-05-28T00:51:42;5;5;
69123;PMS5003;56232;53.384;-2.732;2023-05-28T00:54:07;4;4;
69123;PMS5003;56232;53.384;-2.732;2023-05-28T00:56:33;5;5;
69123;PMS5003;56232;53.384;-2.732;2023-05-28T00:58:59;3;3;
69123;PMS5003;56232;53.384;-2.732;2023-05-28T01:01:24;8;7;
69123;PMS5003;56232;53.384;-2.732;2023-05-28T01:03:50;5;4;
69123;PMS5003;56232;53.384;-2.732;2023-05-28T01:06:16;4;4;
69123;PMS5003;56232;53.384;-2.732;2023-05-28T01:08:41;6;5;
69123;PMS5003;56232;53.384;-2.732;2023-05-28T01:11:08;5;5;
69123;PMS5003;56232;53.384;-2.732;2023-05-28T01:13:33;5;5;
69123;PMS5003;56232;53.384;-2.732;2023-05-28T01:15:59;3;3;
69123;PMS5003;56232;53.384;-2.732;2023-05-28T01:18:24;3;3;
69123;PMS5003;56232;53.384;-2.732;2023-05-28T01:20:50;3;3;
69123;PMS5003;56232;53.384;-2.732;2023-05-28T01:23:16;6;6;
69123;PMS5003;56232;53.384;-2.732;2023-05-28T01:25:41;4;4;
69123;PMS5003;56232;53.384;-2.732;2023-05-28T01:28:10;4;4;
69123;PMS5003;56232;53.384;-2.732;2023-05-28T01:30:33;4;3;
69123;PMS5003;56232;53.384;-2.732;2023-05-28T01:32:58;4;4;
69123;PMS5003;56232;53.384;-2.732;2023-05-28T01:35:24;4;3;
69123;PMS5003;56232;53.384;-2.732;2023-05-28T01:37:50;4;4;
69123;PMS5003;56232;53.384;-2.732;2023-05-28T01:40:16;3;3;
69123;PMS5003;56232;53.384;-2.732;2023-05-28T01:42:41;4;4;
69123;PMS5003;56232;53.384;-2.732;2023-05-28T01:45:08;2;2;
69123;PMS5003;56232;53.384;-2.732;2023-05-28T01:47:32;4;3;
69123;PMS5003;56232;53.384;-2.732;2023-05-28T01:49:58;3;3;
69123;PMS5003;56232;53.384;-2.732;2023-05-28T01:52:24;2;2;
69123;PMS5003;56232;53.384;-2.732;2023-05-28T01:54:49;5;4;
69123;PMS5003;56232;53.384;-2.732;2023-05-28T01:57:15;2;2;
69123;PMS5003;56232;53.384;-2.732;2023-05-28T01:59:41;3;3;
69123;PMS5003;56232;53.384;-2.732;2023-05-28T02:02:07;5;4;
69123;PMS5003;56232;53.384;-2.732;2023-05-28T02:04:32;4;4;
69123;PMS5003;56232;53.384;-2.732;2023-05-28T02:06:58;5;4;
69123;PMS5003;56232;53.384;-2.732;2023-05-28T02:09:23;5;5;
69123;PMS5003;56232;53.384;-2.732;2023-05-28T02:11:49;4;4;
69123;PMS5003;56232;53.384;-2.732;2023-05-28T02:14:15;4;4;
69123;PMS5003;56232;53.384;-2.732;2023-05-28T02:16:41;3;3;
69123;PMS5003;56232;53.384;-2.732;2023-05-28T02:19:06;4;3;
69123;PMS5003;56232;53.384;-2.732;2023-05-28T02:21:32;3;1;
69123;PMS5003;56232;53.384;-2.732;2023-05-28T02:23:58;3;3;
69123;PMS5003;56232;53.384;-2.732;2023-05-28T02:26:23;3;3;
69123;PMS5003;56232;53.384;-2.732;2023-05-28T02:28:49;3;3;
69123;PMS5003;56232;53.384;-2.732;2023-05-28T02:31:15;4;3;
69123;PMS5003;56232;53.384;-2.732;2023-05-28T02:33:40;4;4;
69123;PMS5003;56232;53.384;-2.732;2023-05-28T02:36:06;4;3;
69123;PMS5003;56232;53.384;-2.732;2023-05-28T02:38:32;3;3;
69123;PMS5003;56232;53.384;-2.732;2023-05-28T02:40:57;5;5;
69123;PMS5003;56232;53.384;-2.732;2023-05-28T02:43:23;5;4;
69123;PMS5003;56232;53.384;-2.732;2023-05-28T02:45:49;4;4;
69123;PMS5003;56232;53.384;-2.732;2023-05-28T02:48:14;2;2;
69123;PMS5003;56232;53.384;-2.732;2023-05-28T02:50:40;5;5;
69123;PMS5003;56232;53.384;-2.732;2023-05-28T02:53:06;5;4;
69123;PMS5003;56232;53.384;-2.732;2023-05-28T02:55:31;3;3;
69123;PMS5003;56232;53.384;-2.732;2023-05-28T02:57:57;4;4;
69123;PMS5003;56232;53.384;-2.732;2023-05-28T03:00:23;3;3;
69123;PMS5003;56232;53.384;-2.732;2023-05-28T03:02:48;5;4;
69123;PMS5003;56232;53.384;-2.732;2023-05-28T03:05:14;2;2;
69123;PMS5003;56232;53.384;-2.732;2023-05-28T03:07:39;4;4;
69123;PMS5003;56232;53.384;-2.732;2023-05-28T03:10:05;8;5;
69123;PMS5003;56232;53.384;-2.732;2023-05-28T03:12:30;3;3;
69123;PMS5003;56232;53.384;-2.732;2023-05-28T03:14:56;6;6;
69123;PMS5003;56232;53.384;-2.732;2023-05-28T03:17:22;3;3;
69123;PMS5003;56232;53.384;-2.732;2023-05-28T03:19:47;2;2;
69123;PMS5003;56232;53.384;-2.732;2023-05-28T03:22:13;4;3;
69123;PMS5003;56232;53.384;-2.732;2023-05-28T03:24:39;3;3;
69123;PMS5003;56232;53.384;-2.732;2023-05-28T03:27:05;3;3;
69123;PMS5003;56232;53.384;-2.732;2023-05-28T03:29:30;5;4;
69123;PMS5003;56232;53.384;-2.732;2023-05-28T03:31:56;3;3;
69123;PMS5003;56232;53.384;-2.732;2023-05-28T03:34:22;6;5;
69123;PMS5003;56232;53.384;-2.732;2023-05-28T03:36:47;3;3;
69123;PMS5003;56232;53.384;-2.732;2023-05-28T03:39:13;6;5;
69123;PMS5003;56232;53.384;-2.732;2023-05-28T03:41:39;3;3;
69123;PMS5003;56232;53.384;-2.732;2023-05-28T03:44:05;5;4;
69123;PMS5003;56232;53.384;-2.732;2023-05-28T03:46:30;8;6;
69123;PMS5003;56232;53.384;-2.732;2023-05-28T03:48:56;5;5;
69123;PMS5003;56232;53.384;-2.732;2023-05-28T03:51:21;4;4;
69123;PMS5003;56232;53.384;-2.732;2023-05-28T03:53:47;3;3;
69123;PMS5003;56232;53.384;-2.732;2023-05-28T03:56:12;6;6;
69123;PMS5003;56232;53.384;-2.732;2023-05-28T03:58:38;4;4;
69123;PMS5003;56232;53.384;-2.732;2023-05-28T04:01:04;4;3;
69123;PMS5003;56232;53.384;-2.732;2023-05-28T04:03:29;4;4;
69123;PMS5003;56232;53.384;-2.732;2023-05-28T04:05:55;5;4;
69123;PMS5003;56232;53.384;-2.732;2023-05-28T04:08:21;3;3;
69123;PMS5003;56232;53.384;-2.732;2023-05-28T04:10:47;7;6;
69123;PMS5003;56232;53.384;-2.732;2023-05-28T04:13:12;3;3;
69123;PMS5003;56232;53.384;-2.732;2023-05-28T04:15:38;5;5;
69123;PMS5003;56232;53.384;-2.732;2023-05-28T04:18:04;4;4;
69123;PMS5003;56232;53.384;-2.732;2023-05-28T04:20:29;4;4;
69123;PMS5003;56232;53.384;-2.732;2023-05-28T04:22:55;3;2;
69123;PMS5003;56232;53.384;-2.732;2023-05-28T04:25:20;6;5;
69123;PMS5003;56232;53.384;-2.732;2023-05-28T04:27:46;5;5;
69123;PMS5003;56232;53.384;-2.732;2023-05-28T04:30:12;5;5;
69123;PMS5003;56232;53.384;-2.732;2023-05-28T04:32:37;3;3;
69123;PMS5003;56232;53.384;-2.732;2023-05-28T04:35:03;3;3;
69123;PMS5003;56232;53.384;-2.732;2023-05-28T04:37:29;3;3;
69123;PMS5003;56232;53.384;-2.732;2023-05-28T04:39:54;3;3;
69123;PMS5003;56232;53.384;-2.732;2023-05-28T04:42:20;5;5;
69123;PMS5003;56232;53.384;-2.732;2023-05-28T04:44:46;5;5;
69123;PMS5003;56232;53.384;-2.732;2023-05-28T04:47:12;3;3;
69123;PMS5003;56232;53.384;-2.732;2023-05-28T04:49:37;4;4;
69123;PMS5003;56232;53.384;-2.732;2023-05-28T04:52:03;4;3;
69123;PMS5003;56232;53.384;-2.732;2023-05-28T04:54:29;4;4;
69123;PMS5003;56232;53.384;-2.732;2023-05-28T04:56:54;4;3;
69123;PMS5003;56232;53.384;-2.732;2023-05-28T04:59:20;4;4;
69123;PMS5003;56232;53.384;-2.732;2023-05-28T05:01:46;3;3;
69123;PMS5003;56232;53.384;-2.732;2023-05-28T05:04:11;3;3;
69123;PMS5003;56232;53.384;-2.732;2023-05-28T05:06:37;3;3;
69123;PMS5003;56232;53.384;-2.732;2023-05-28T05:09:03;3;3;
69123;PMS5003;56232;53.384;-2.732;2023-05-28T05:11:28;5;4;
69123;PMS5003;56232;53.384;-2.732;2023-05-28T05:13:54;4;3;
69123;PMS5003;56232;53.384;-2.732;2023-05-28T05:16:20;5;4;
69123;PMS5003;56232;53.384;-2.732;2023-05-28T05:18:46;4;4;
69123;PMS5003;56232;53.384;-2.732;2023-05-28T05:21:11;3;3;
69123;PMS5003;56232;53.384;-2.732;2023-05-28T05:23:37;4;4;
69123;PMS5003;56232;53.384;-2.732;2023-05-28T05:26:03;3;3;
69123;PMS5003;56232;53.384;-2.732;2023-05-28T05:28:28;4;4;
69123;PMS5003;56232;53.384;-2.732;2023-05-28T05:30:54;3;3;
69123;PMS5003;56232;53.384;-2.732;2023-05-28T05:33:20;4;4;
69123;PMS5003;56232;53.384;-2.732;2023-05-28T05:35:45;4;4;
69123;PMS5003;56232;53.384;-2.732;2023-05-28T05:38:11;3;3;
69123;PMS5003;56232;53.384;-2.732;2023-05-28T05:40:37;3;3;
69123;PMS5003;56232;53.384;-2.732;2023-05-28T05:43:02;6;5;
69123;PMS5003;56232;53.384;-2.732;2023-05-28T05:45:28;4;3;
69123;PMS5003;56232;53.384;-2.732;2023-05-28T05:47:54;4;4;
69123;PMS5003;56232;53.384;-2.732;2023-05-28T05:50:20;3;3;
69123;PMS5003;56232;53.384;-2.732;2023-05-28T05:52:45;4;4;
69123;PMS5003;56232;53.384;-2.732;2023-05-28T05:55:11;4;3;
69123;PMS5003;56232;53.384;-2.732;2023-05-28T05:57:36;4;4;
69123;PMS5003;56232;53.384;-2.732;2023-05-28T06:00:03;4;4;
69123;PMS5003;56232;53.384;-2.732;2023-05-28T06:02:28;4;3;
69123;PMS5003;56232;53.384;-2.732;2023-05-28T06:04:53;1;1;
69123;PMS5003;56232;53.384;-2.732;2023-05-28T06:07:19;5;4;
69123;PMS5003;56232;53.384;-2.732;2023-05-28T06:09:45;4;3;
69123;PMS5003;56232;53.384;-2.732;2023-05-28T06:12:10;5;3;
69123;PMS5003;56232;53.384;-2.732;2023-05-28T06:14:36;3;3;
69123;PMS5003;56232;53.384;-2.732;2023-05-28T06:17:02;3;3;
69123;PMS5003;56232;53.384;-2.732;2023-05-28T06:19:27;3;3;
69123;PMS5003;56232;53.384;-2.732;2023-05-28T06:21:53;3;3;
69123;PMS5003;56232;53.384;-2.732;2023-05-28T06:24:18;2;2;
69123;PMS5003;56232;53.384;-2.732;2023-05-28T06:26:44;4;4;
69123;PMS5003;56232;53.384;-2.732;2023-05-28T06:29:10;3;3;
69123;PMS5003;56232;53.384;-2.732;2023-05-28T06:31:35;2;2;
69123;PMS5003;56232;53.384;-2.732;2023-05-28T06:34:01;3;3;
69123;PMS5003;56232;53.384;-2.732;2023-05-28T06:36:26;4;4;
69123;PMS5003;56232;53.384;-2.732;2023-05-28T06:38:52;3;3;
69123;PMS5003;56232;53.384;-2.732;2023-05-28T06:41:17;3;3;
69123;PMS5003;56232;53.384;-2.732;2023-05-28T06:43:43;3;3;
69123;PMS5003;56232;53.384;-2.732;2023-05-28T06:46:09;4;4;
69123;PMS5003;56232;53.384;-2.732;2023-05-28T06:48:34;3;3;
69123;PMS5003;56232;53.384;-2.732;2023-05-28T06:51:00;3;2;
69123;PMS5003;56232;53.384;-2.732;2023-05-28T06:53:26;3;3;
69123;PMS5003;56232;53.384;-2.732;2023-05-28T06:55:51;3;3;
69123;PMS5003;56232;53.384;-2.732;2023-05-28T06:58:17;4;4;
69123;PMS5003;56232;53.384;-2.732;2023-05-28T07:00:42;4;4;
69123;PMS5003;56232;53.384;-2.732;2023-05-28T07:03:08;4;3;
69123;PMS5003;56232;53.384;-2.732;2023-05-28T07:05:34;7;5;
69123;PMS5003;56232;53.384;-2.732;2023-05-28T07:07:59;3;3;
69123;PMS5003;56232;53.384;-2.732;2023-05-28T07:10:31;4;4;
69123;PMS5003;56232;53.384;-2.732;2023-05-28T07:12:51;5;4;
69123;PMS5003;56232;53.384;-2.732;2023-05-28T07:15:16;4;3;
69123;PMS5003;56232;53.384;-2.732;2023-05-28T07:17:42;3;3;
69123;PMS5003;56232;53.384;-2.732;2023-05-28T07:20:08;3;3;
69123;PMS5003;56232;53.384;-2.732;2023-05-28T07:22:34;4;3;
69123;PMS5003;56232;53.384;-2.732;2023-05-28T07:24:59;3;3;
69123;PMS5003;56232;53.384;-2.732;2023-05-28T07:27:25;4;4;
69123;PMS5003;56232;53.384;-2.732;2023-05-28T07:29:50;6;4;
69123;PMS5003;56232;53.384;-2.732;2023-05-28T07:32:16;3;2;
69123;PMS5003;56232;53.384;-2.732;2023-05-28T07:34:42;2;2;
69123;PMS5003;56232;53.384;-2.732;2023-05-28T07:37:07;5;4;
69123;PMS5003;56232;53.384;-2.732;2023-05-28T07:39:33;4;3;
69123;PMS5003;56232;53.384;-2.732;2023-05-28T07:41:58;4;3;
69123;PMS5003;56232;53.384;-2.732;2023-05-28T07:44:25;5;3;
69123;PMS5003;56232;53.384;-2.732;2023-05-28T07:46:50;4;4;
69123;PMS5003;56232;53.384;-2.732;2023-05-28T07:49:15;4;3;
69123;PMS5003;56232;53.384;-2.732;2023-05-28T07:51:41;5;3;
69123;PMS5003;56232;53.384;-2.732;2023-05-28T07:54:07;2;2;
69123;PMS5003;56232;53.384;-2.732;2023-05-28T07:56:32;4;4;
69123;PMS5003;56232;53.384;-2.732;2023-05-28T07:58:58;4;4;
69123;PMS5003;56232;53.384;-2.732;2023-05-28T08:01:24;3;3;
69123;PMS5003;56232;53.384;-2.732;2023-05-28T08:03:49;2;2;
69123;PMS5003;56232;53.384;-2.732;2023-05-28T08:06:15;3;3;
69123;PMS5003;56232;53.384;-2.732;2023-05-28T08:08:40;5;5;
69123;PMS5003;56232;53.384;-2.732;2023-05-28T08:11:06;4;4;
69123;PMS5003;56232;53.384;-2.732;2023-05-28T08:13:31;2;2;
69123;PMS5003;56232;53.384;-2.732;2023-05-28T08:15:58;3;3;
69123;PMS5003;56232;53.384;-2.732;2023-05-28T08:18:22;3;3;
69123;PMS5003;56232;53.384;-2.732;2023-05-28T08:20:48;1;1;
69123;PMS5003;56232;53.384;-2.732;2023-05-28T08:23:14;4;4;
69123;PMS5003;56232;53.384;-2.732;2023-05-28T08:25:39;3;3;
69123;PMS5003;56232;53.384;-2.732;2023-05-28T08:28:05;3;3;
69123;PMS5003;56232;53.384;-2.732;2023-05-28T08:30:30;3;3;
69123;PMS5003;56232;53.384;-2.732;2023-05-28T08:32:55;4;4;
69123;PMS5003;56232;53.384;-2.732;2023-05-28T08:35:21;3;3;
69123;PMS5003;56232;53.384;-2.732;2023-05-28T08:37:47;4;4;
69123;PMS5003;56232;53.384;-2.732;2023-05-28T08:40:12;2;2;
69123;PMS5003;56232;53.384;-2.732;2023-05-28T08:42:38;2;2;
69123;PMS5003;56232;53.384;-2.732;2023-05-28T08:45:03;3;3;
69123;PMS5003;56232;53.384;-2.732;2023-05-28T08:47:31;3;3;
69123;PMS5003;56232;53.384;-2.732;2023-05-28T08:49:54;2;2;
69123;PMS5003;56232;53.384;-2.732;2023-05-28T08:52:20;4;3;
69123;PMS5003;56232;53.384;-2.732;2023-05-28T08:54:45;3;3;
69123;PMS5003;56232;53.384;-2.732;2023-05-28T08:57:11;3;3;
69123;PMS5003;56232;53.384;-2.732;2023-05-28T08:59:37;2;2;
69123;PMS5003;56232;53.384;-2.732;2023-05-28T09:02:02;4;3;
69123;PMS5003;56232;53.384;-2.732;2023-05-28T09:04:27;3;3;
69123;PMS5003;56232;53.384;-2.732;2023-05-28T09:06:53;3;3;
69123;PMS5003;56232;53.384;-2.732;2023-05-28T09:09:18;2;2;
69123;PMS5003;56232;53.384;-2.732;2023-05-28T09:11:44;3;3;
69123;PMS5003;56232;53.384;-2.732;2023-05-28T09:14:10;4;4;
69123;PMS5003;56232;53.384;-2.732;2023-05-28T09:16:35;2;2;
69123;PMS5003;56232;53.384;-2.732;2023-05-28T09:19:01;3;3;
69123;PMS5003;56232;53.384;-2.732;2023-05-28T09:21:26;4;4;
69123;PMS5003;56232;53.384;-2.732;2023-05-28T09:23:52;4;3;
69123;PMS5003;56232;53.384;-2.732;2023-05-28T09:26:17;2;2;
69123;PMS5003;56232;53.384;-2.732;2023-05-28T09:28:42;3;3;
69123;PMS5003;56232;53.384;-2.732;2023-05-28T09:31:08;4;4;
69123;PMS5003;56232;53.384;-2.732;2023-05-28T09:33:34;5;4;
69123;PMS5003;56232;53.384;-2.732;2023-05-28T09:35:59;3;3;
69123;PMS5003;56232;53.384;-2.732;2023-05-28T09:38:25;4;4;
69123;PMS5003;56232;53.384;-2.732;2023-05-28T09:40:50;4;4;
69123;PMS5003;56232;53.384;-2.732;2023-05-28T09:43:15;2;2;
69123;PMS5003;56232;53.384;-2.732;2023-05-28T09:45:41;2;2;
69123;PMS5003;56232;53.384;-2.732;2023-05-28T09:48:07;5;5;
69123;PMS5003;56232;53.384;-2.732;2023-05-28T09:50:32;3;3;
69123;PMS5003;56232;53.384;-2.732;2023-05-28T09:52:58;4;4;
69123;PMS5003;56232;53.384;-2.732;2023-05-28T09:55:24;2;2;
69123;PMS5003;56232;53.384;-2.732;2023-05-28T09:57:51;3;3;
69123;PMS5003;56232;53.384;-2.732;2023-05-28T10:00:17;4;4;
69123;PMS5003;56232;53.384;-2.732;2023-05-28T10:02:42;3;3;
69123;PMS5003;56232;53.384;-2.732;2023-05-28T10:05:06;3;3;
69123;PMS5003;56232;53.384;-2.732;2023-05-28T10:07:31;3;3;
69123;PMS5003;56232;53.384;-2.732;2023-05-28T10:09:57;3;3;
69123;PMS5003;56232;53.384;-2.732;2023-05-28T10:12:23;3;3;
69123;PMS5003;56232;53.384;-2.732;2023-05-28T10:14:47;2;2;
69123;PMS5003;56232;53.384;-2.732;2023-05-28T10:17:13;4;4;
69123;PMS5003;56232;53.384;-2.732;2023-05-28T10:19:38;3;3;
69123;PMS5003;56232;53.384;-2.732;2023-05-28T10:22:04;3;3;
69123;PMS5003;56232;53.384;-2.732;2023-05-28T10:24:30;2;2;
69123;PMS5003;56232;53.384;-2.732;2023-05-28T10:26:55;4;4;
69123;PMS5003;56232;53.384;-2.732;2023-05-28T10:29:20;3;3;
69123;PMS5003;56232;53.384;-2.732;2023-05-28T10:34:15;4;4;
69123;PMS5003;56232;53.384;-2.732;2023-05-28T10:36:41;5;5;
69123;PMS5003;56232;53.384;-2.732;2023-05-28T10:39:03;4;4;
69123;PMS5003;56232;53.384;-2.732;2023-05-28T10:41:30;5;4;
69123;PMS5003;56232;53.384;-2.732;2023-05-28T10:43:53;5;5;
69123;PMS5003;56232;53.384;-2.732;2023-05-28T10:46:19;3;3;
69123;PMS5003;56232;53.384;-2.732;2023-05-28T10:51:10;5;5;
69123;PMS5003;56232;53.384;-2.732;2023-05-28T10:53:35;5;5;
69123;PMS5003;56232;53.384;-2.732;2023-05-28T10:56:01;6;6;
69123;PMS5003;56232;53.384;-2.732;2023-05-28T10:58:27;5;5;
69123;PMS5003;56232;53.384;-2.732;2023-05-28T11:00:53;20;17;
69123;PMS5003;56232;53.384;-2.732;2023-05-28T11:03:17;24;23;
69123;PMS5003;56232;53.384;-2.732;2023-05-28T11:05:43;24;24;
69123;PMS5003;56232;53.384;-2.732;2023-05-28T11:08:08;13;12;
69123;PMS5003;56232;53.384;-2.732;2023-05-28T11:10:34;4;4;
69123;PMS5003;56232;53.384;-2.732;2023-05-28T11:12:59;6;6;
69123;PMS5003;56232;53.384;-2.732;2023-05-28T11:15:25;4;4;
69123;PMS5003;56232;53.384;-2.732;2023-05-28T11:17:51;5;5;
69123;PMS5003;56232;53.384;-2.732;2023-05-28T11:20:17;5;5;
69123;PMS5003;56232;53.384;-2.732;2023-05-28T11:22:42;6;6;
69123;PMS5003;56232;53.384;-2.732;2023-05-28T11:25:08;4;4;
69123;PMS5003;56232;53.384;-2.732;2023-05-28T11:27:33;6;6;
69123;PMS5003;56232;53.384;-2.732;2023-05-28T11:29:59;6;6;
69123;PMS5003;56232;53.384;-2.732;2023-05-28T11:32:24;5;5;
69123;PMS5003;56232;53.384;-2.732;2023-05-28T11:34:50;4;4;
69123;PMS5003;56232;53.384;-2.732;2023-05-28T11:37:15;4;4;
69123;PMS5003;56232;53.384;-2.732;2023-05-28T11:42:07;4;4;
69123;PMS5003;56232;53.384;-2.732;2023-05-28T11:44:36;5;5;
69123;PMS5003;56232;53.384;-2.732;2023-05-28T11:46:57;6;5;
69123;PMS5003;56232;53.384;-2.732;2023-05-28T11:49:23;3;3;
69123;PMS5003;56232;53.384;-2.732;2023-05-28T11:51:49;3;3;
69123;PMS5003;56232;53.384;-2.732;2023-05-28T11:54:14;4;4;
69123;PMS5003;56232;53.384;-2.732;2023-05-28T11:56:39;6;6;
69123;PMS5003;56232;53.384;-2.732;2023-05-28T11:59:05;5;5;
69123;PMS5003;56232;53.384;-2.732;2023-05-28T12:01:31;3;3;
69123;PMS5003;56232;53.384;-2.732;2023-05-28T12:06:21;6;5;
69123;PMS5003;56232;53.384;-2.732;2023-05-28T12:08:47;3;3;
69123;PMS5003;56232;53.384;-2.732;2023-05-28T12:11:12;5;5;
69123;PMS5003;56232;53.384;-2.732;2023-05-28T12:13:38;5;4;
69123;PMS5003;56232;53.384;-2.732;2023-05-28T12:16:05;5;4;
69123;PMS5003;56232;53.384;-2.732;2023-05-28T12:18:29;5;5;
69123;PMS5003;56232;53.384;-2.732;2023-05-28T12:20:54;5;5;
69123;PMS5003;56232;53.384;-2.732;2023-05-28T12:23:20;5;4;
69123;PMS5003;56232;53.384;-2.732;2023-05-28T12:25:46;5;5;
69123;PMS5003;56232;53.384;-2.732;2023-05-28T12:28:12;4;4;
69123;PMS5003;56232;53.384;-2.732;2023-05-28T12:30:37;6;6;
69123;PMS5003;56232;53.384;-2.732;2023-05-28T12:33:02;6;6;
69123;PMS5003;56232;53.384;-2.732;2023-05-28T12:35:28;6;6;
69123;PMS5003;56232;53.384;-2.732;2023-05-28T12:37:53;5;4;
69123;PMS5003;56232;53.384;-2.732;2023-05-28T12:40:19;5;5;
69123;PMS5003;56232;53.384;-2.732;2023-05-28T12:42:44;7;6;
69123;PMS5003;56232;53.384;-2.732;2023-05-28T12:45:10;6;5;
69123;PMS5003;56232;53.384;-2.732;2023-05-28T12:47:35;6;5;
69123;PMS5003;56232;53.384;-2.732;2023-05-28T12:50:01;4;4;
69123;PMS5003;56232;53.384;-2.732;2023-05-28T12:52:27;5;4;
69123;PMS5003;56232;53.384;-2.732;2023-05-28T12:54:52;6;6;
69123;PMS5003;56232;53.384;-2.732;2023-05-28T12:57:17;6;5;
69123;PMS5003;56232;53.384;-2.732;2023-05-28T12:59:43;6;5;
69123;PMS5003;56232;53.384;-2.732;2023-05-28T13:02:09;5;4;
69123;PMS5003;56232;53.384;-2.732;2023-05-28T13:04:34;3;3;
69123;PMS5003;56232;53.384;-2.732;2023-05-28T13:07:00;6;5;
69123;PMS5003;56232;53.384;-2.732;2023-05-28T13:09:25;5;5;
69123;PMS5003;56232;53.384;-2.732;2023-05-28T13:11:51;4;4;
69123;PMS5003;56232;53.384;-2.732;2023-05-28T13:14:16;4;4;
69123;PMS5003;56232;53.384;-2.732;2023-05-28T13:16:42;5;4;
69123;PMS5003;56232;53.384;-2.732;2023-05-28T13:19:08;7;5;
69123;PMS5003;56232;53.384;-2.732;2023-05-28T13:21:33;5;4;
69123;PMS5003;56232;53.384;-2.732;2023-05-28T13:24:00;4;4;
69123;PMS5003;56232;53.384;-2.732;2023-05-28T13:26:24;5;5;
69123;PMS5003;56232;53.384;-2.732;2023-05-28T13:28:49;5;5;
69123;PMS5003;56232;53.384;-2.732;2023-05-28T13:31:15;5;5;
69123;PMS5003;56232;53.384;-2.732;2023-05-28T13:33:41;4;4;
69123;PMS5003;56232;53.384;-2.732;2023-05-28T13:36:07;6;6;
69123;PMS5003;56232;53.384;-2.732;2023-05-28T13:38:32;5;5;
69123;PMS5003;56232;53.384;-2.732;2023-05-28T13:40:57;7;6;
69123;PMS5003;56232;53.384;-2.732;2023-05-28T13:43:23;5;4;
69123;PMS5003;56232;53.384;-2.732;2023-05-28T13:45:48;4;4;
69123;PMS5003;56232;53.384;-2.732;2023-05-28T13:48:14;6;4;
69123;PMS5003;56232;53.384;-2.732;2023-05-28T13:50:39;4;4;
69123;PMS5003;56232;53.384;-2.732;2023-05-28T13:53:05;6;5;
69123;PMS5003;56232;53.384;-2.732;2023-05-28T13:55:30;5;4;
69123;PMS5003;56232;53.384;-2.732;2023-05-28T13:57:56;7;6;
69123;PMS5003;56232;53.384;-2.732;2023-05-28T14:00:21;4;4;
69123;PMS5003;56232;53.384;-2.732;2023-05-28T14:02:47;6;6;
69123;PMS5003;56232;53.384;-2.732;2023-05-28T14:05:13;5;5;
69123;PMS5003;56232;53.384;-2.732;2023-05-28T14:07:38;5;5;
69123;PMS5003;56232;53.384;-2.732;2023-05-28T14:10:04;7;6;
69123;PMS5003;56232;53.384;-2.732;2023-05-28T14:12:29;6;5;
69123;PMS5003;56232;53.384;-2.732;2023-05-28T14:14:55;5;5;
69123;PMS5003;56232;53.384;-2.732;2023-05-28T14:17:20;6;6;
69123;PMS5003;56232;53.384;-2.732;2023-05-28T14:19:46;6;6;
69123;PMS5003;56232;53.384;-2.732;2023-05-28T14:22:11;9;8;
69123;PMS5003;56232;53.384;-2.732;2023-05-28T14:24:37;8;8;
69123;PMS5003;56232;53.384;-2.732;2023-05-28T14:27:03;6;6;
69123;PMS5003;56232;53.384;-2.732;2023-05-28T14:29:28;5;5;
69123;PMS5003;56232;53.384;-2.732;2023-05-28T14:31:54;8;6;
69123;PMS5003;56232;53.384;-2.732;2023-05-28T14:34:19;6;5;
69123;PMS5003;56232;53.384;-2.732;2023-05-28T14:36:45;8;7;
69123;PMS5003;56232;53.384;-2.732;2023-05-28T14:39:10;5;5;
69123;PMS5003;56232;53.384;-2.732;2023-05-28T14:41:36;7;6;
69123;PMS5003;56232;53.384;-2.732;2023-05-28T14:44:01;6;5;
69123;PMS5003;56232;53.384;-2.732;2023-05-28T14:46:27;8;6;
69123;PMS5003;56232;53.384;-2.732;2023-05-28T14:48:52;7;7;
69123;PMS5003;56232;53.384;-2.732;2023-05-28T14:51:18;5;4;
69123;PMS5003;56232;53.384;-2.732;2023-05-28T14:53:43;5;4;
69123;PMS5003;56232;53.384;-2.732;2023-05-28T14:56:09;6;6;
69123;PMS5003;56232;53.384;-2.732;2023-05-28T14:58:34;5;4;
69123;PMS5003;56232;53.384;-2.732;2023-05-28T15:01:00;7;7;
69123;PMS5003;56232;53.384;-2.732;2023-05-28T15:03:25;8;5;
69123;PMS5003;56232;53.384;-2.732;2023-05-28T15:05:51;6;6;
69123;PMS5003;56232;53.384;-2.732;2023-05-28T15:08:17;6;5;
69123;PMS5003;56232;53.384;-2.732;2023-05-28T15:10:42;8;6;
69123;PMS5003;56232;53.384;-2.732;2023-05-28T15:13:08;7;7;
69123;PMS5003;56232;53.384;-2.732;2023-05-28T15:15:33;6;6;
69123;PMS5003;56232;53.384;-2.732;2023-05-28T15:17:59;7;7;
69123;PMS5003;56232;53.384;-2.732;2023-05-28T15:20:25;7;7;
69123;PMS5003;56232;53.384;-2.732;2023-05-28T15:22:50;8;7;
69123;PMS5003;56232;53.384;-2.732;2023-05-28T15:25:16;7;6;
69123;PMS5003;56232;53.384;-2.732;2023-05-28T15:27:41;5;5;
69123;PMS5003;56232;53.384;-2.732;2023-05-28T15:30:07;8;8;
69123;PMS5003;56232;53.384;-2.732;2023-05-28T15:32:32;8;8;
69123;PMS5003;56232;53.384;-2.732;2023-05-28T15:34:58;6;6;
69123;PMS5003;56232;53.384;-2.732;2023-05-28T15:37:24;8;8;
69123;PMS5003;56232;53.384;-2.732;2023-05-28T15:39:49;8;7;
69123;PMS5003;56232;53.384;-2.732;2023-05-28T15:42:15;5;5;
69123;PMS5003;56232;53.384;-2.732;2023-05-28T15:44:40;8;7;
69123;PMS5003;56232;53.384;-2.732;2023-05-28T15:47:06;7;6;
69123;PMS5003;56232;53.384;-2.732;2023-05-28T15:49:31;6;6;
69123;PMS5003;56232;53.384;-2.732;2023-05-28T15:51:57;7;7;
69123;PMS5003;56232;53.384;-2.732;2023-05-28T15:54:23;9;7;
69123;PMS5003;56232;53.384;-2.732;2023-05-28T15:56:48;10;9;
69123;PMS5003;56232;53.384;-2.732;2023-05-28T15:59:14;7;7;
69123;PMS5003;56232;53.384;-2.732;2023-05-28T16:01:40;11;10;
69123;PMS5003;56232;53.384;-2.732;2023-05-28T16:04:06;6;6;
69123;PMS5003;56232;53.384;-2.732;2023-05-28T16:06:31;7;7;
69123;PMS5003;56232;53.384;-2.732;2023-05-28T16:08:56;8;8;
69123;PMS5003;56232;53.384;-2.732;2023-05-28T16:11:22;10;10;
69123;PMS5003;56232;53.384;-2.732;2023-05-28T16:13:47;8;7;
69123;PMS5003;56232;53.384;-2.732;2023-05-28T16:16:13;6;6;
69123;PMS5003;56232;53.384;-2.732;2023-05-28T16:18:39;7;7;
69123;PMS5003;56232;53.384;-2.732;2023-05-28T16:21:05;7;5;
69123;PMS5003;56232;53.384;-2.732;2023-05-28T16:23:30;9;8;
69123;PMS5003;56232;53.384;-2.732;2023-05-28T16:26:10;11;8;
69123;PMS5003;56232;53.384;-2.732;2023-05-28T16:28:21;10;8;
69123;PMS5003;56232;53.384;-2.732;2023-05-28T16:30:46;6;6;